createdAt,value
2019-05-21T00:01:15.162Z,49.03
2019-05-21T00:03:44.582Z,49.31
2019-05-21T00:06:14.032Z,49.40
2019-05-21T00:08:43.504Z,49.61
2019-05-21T00:11:13.029Z,49.97
2019-05-21T00:13:42.580Z,50.23
2019-05-21T00:16:11.964Z,50.41
2019-05-21T00:18:41.397Z,50.45
2019-05-21T00:21:10.892Z,50.60
2019-05-21T00:23:40.173Z,50.57
2019-05-21T00:26:09.565Z,50.62
2019-05-21T00:28:40.801Z,50.93
2019-05-21T00:31:46.153Z,51.07
2019-05-21T00:34:51.188Z,51.37
2019-05-21T00:37:56.034Z,51.87
2019-05-21T00:41:01.156Z,52.16
2019-05-21T00:43:58.641Z,52.45
2019-05-21T00:46:28.057Z,52.58
2019-05-21T00:48:57.479Z,52.14
2019-05-21T00:51:26.906Z,52.00
2019-05-21T00:53:56.341Z,51.77
2019-05-21T00:56:25.680Z,51.70
2019-05-21T00:58:55.048Z,51.72
2019-05-21T01:01:24.514Z,51.73
2019-05-21T01:03:53.965Z,51.99
2019-05-21T01:06:23.390Z,52.33
2019-05-21T01:08:53.081Z,52.63
2019-05-21T01:11:22.560Z,52.72
2019-05-21T01:13:51.905Z,53.04
2019-05-21T01:16:21.342Z,53.31
2019-05-21T01:18:50.823Z,53.40
2019-05-21T01:21:21.803Z,53.48
2019-05-21T01:23:51.224Z,53.57
2019-05-21T01:26:20.634Z,54.02
2019-05-21T01:28:50.079Z,53.86
2019-05-21T01:31:19.475Z,53.89
2019-05-21T01:33:48.856Z,54.04
2019-05-21T01:36:18.282Z,53.88
2019-05-21T01:38:47.656Z,53.78
2019-05-21T01:41:17.451Z,53.75
2019-05-21T01:43:46.804Z,53.94
2019-05-21T01:46:16.190Z,53.85
2019-05-21T01:48:45.674Z,53.78
2019-05-21T01:51:15.054Z,53.83
2019-05-21T01:53:44.501Z,53.93
2019-05-21T01:56:14.006Z,54.16
2019-05-21T01:58:44.761Z,54.17
2019-05-21T02:01:14.169Z,54.23
2019-05-21T02:03:43.594Z,54.41
2019-05-21T02:06:13.291Z,54.46
2019-05-21T02:08:42.855Z,54.61
2019-05-21T02:11:12.263Z,54.63
2019-05-21T02:13:41.795Z,54.63
2019-05-21T02:16:11.261Z,54.66
2019-05-21T02:18:40.668Z,54.56
2019-05-21T02:21:10.379Z,54.40
2019-05-21T02:23:39.758Z,54.31
2019-05-21T02:26:09.162Z,54.32
2019-05-21T02:28:38.561Z,54.22
2019-05-21T02:31:08.024Z,54.18
2019-05-21T02:33:37.469Z,54.06
2019-05-21T02:36:06.835Z,53.99
2019-05-21T02:38:36.181Z,54.24
2019-05-21T02:41:05.615Z,54.17
2019-05-21T02:43:35.050Z,54.13
2019-05-21T02:46:04.446Z,54.14
2019-05-21T02:48:33.892Z,53.97
2019-05-21T02:51:03.322Z,53.79
2019-05-21T02:53:34.463Z,53.51
2019-05-21T02:56:03.818Z,53.38
2019-05-21T02:58:33.192Z,53.21
2019-05-21T03:01:27.700Z,53.13
2019-05-21T03:03:58.178Z,53.15
2019-05-21T03:06:27.516Z,53.40
2019-05-21T03:08:56.890Z,53.27
2019-05-21T03:11:29.282Z,53.23
2019-05-21T03:13:58.696Z,53.23
2019-05-21T03:16:28.104Z,53.22
2019-05-21T03:18:57.529Z,53.17
2019-05-21T03:21:26.996Z,53.04
2019-05-21T03:23:56.494Z,52.83
2019-05-21T03:26:26.036Z,52.68
2019-05-21T03:28:55.792Z,52.57
2019-05-21T03:31:25.236Z,52.48
2019-05-21T03:33:54.642Z,52.43
2019-05-21T03:36:33.442Z,52.41
2019-05-21T03:38:56.241Z,52.39
2019-05-21T03:41:25.649Z,52.43
2019-05-21T03:43:55.136Z,52.37
2019-05-21T03:46:24.676Z,52.41
2019-05-21T03:48:54.089Z,52.36
2019-05-21T03:51:23.511Z,52.34
2019-05-21T03:53:53.118Z,52.23
2019-05-21T03:56:22.543Z,52.19
2019-05-21T03:58:52.000Z,52.17
2019-05-21T04:01:21.410Z,52.18
2019-05-21T04:03:54.780Z,52.15
2019-05-21T04:06:24.144Z,52.12
2019-05-21T04:08:53.573Z,52.10
2019-05-21T04:11:22.876Z,52.12
2019-05-21T04:13:52.258Z,52.10
2019-05-21T04:16:40.556Z,52.03
2019-05-21T04:19:16.200Z,52.03
2019-05-21T04:21:46.430Z,51.99
2019-05-21T04:24:15.778Z,51.92
2019-05-21T04:26:45.274Z,51.96
2019-05-21T04:29:14.794Z,51.97
2019-05-21T04:31:44.233Z,51.97
2019-05-21T04:34:13.638Z,52.05
2019-05-21T04:36:43.149Z,52.00
2019-05-21T04:39:12.564Z,51.89
2019-05-21T04:41:42.007Z,51.76
2019-05-21T04:44:11.572Z,51.70
2019-05-21T04:46:41.048Z,51.68
2019-05-21T04:49:10.498Z,51.73
2019-05-21T04:51:40.016Z,51.70
2019-05-21T04:54:09.482Z,51.69
2019-05-21T04:56:41.135Z,51.66
2019-05-21T04:59:10.575Z,51.65
2019-05-21T05:01:40.060Z,51.63
2019-05-21T05:04:09.530Z,51.77
2019-05-21T05:06:39.006Z,51.83
2019-05-21T05:09:08.496Z,51.81
2019-05-21T05:11:37.933Z,51.74
2019-05-21T05:14:07.423Z,51.64
2019-05-21T05:16:36.928Z,51.50
2019-05-21T05:19:06.479Z,51.39
2019-05-21T05:21:35.968Z,51.35
2019-05-21T05:24:07.675Z,51.46
2019-05-21T05:26:37.126Z,51.57
2019-05-21T05:29:06.695Z,51.57
2019-05-21T05:31:37.005Z,51.50
2019-05-21T05:34:06.478Z,51.43
2019-05-21T05:36:36.247Z,51.42
2019-05-21T05:39:07.589Z,51.49
2019-05-21T05:41:37.069Z,51.47
2019-05-21T05:44:06.525Z,51.41
2019-05-21T05:46:35.964Z,51.34
2019-05-21T05:49:14.323Z,51.39
2019-05-21T05:51:44.160Z,51.41
2019-05-21T05:54:13.679Z,51.40
2019-05-21T05:56:43.194Z,51.41
2019-05-21T05:59:14.587Z,51.44
2019-05-21T06:01:44.583Z,51.37
2019-05-21T06:04:14.048Z,51.29
2019-05-21T06:06:43.423Z,51.28
2019-05-21T06:09:12.865Z,51.10
2019-05-21T06:11:42.268Z,50.95
2019-05-21T06:14:11.789Z,50.87
2019-05-21T06:16:41.268Z,50.86
2019-05-21T06:19:10.733Z,50.86
2019-05-21T06:21:40.124Z,50.90
2019-05-21T06:24:13.176Z,50.95
2019-05-21T06:26:40.755Z,50.94
2019-05-21T06:29:10.196Z,50.93
2019-05-21T06:31:39.995Z,50.95
2019-05-21T06:34:09.468Z,50.95
2019-05-21T06:36:38.912Z,51.01
2019-05-21T06:39:08.608Z,51.10
2019-05-21T06:41:38.114Z,51.21
2019-05-21T06:44:07.473Z,51.26
2019-05-21T06:46:39.105Z,51.31
2019-05-21T06:49:08.546Z,51.32
2019-05-21T06:51:38.013Z,51.17
2019-05-21T06:54:07.350Z,51.08
2019-05-21T06:56:36.798Z,50.93
2019-05-21T06:59:06.433Z,50.84
2019-05-21T07:01:35.919Z,50.80
2019-05-21T07:04:05.466Z,50.75
2019-05-21T07:06:36.208Z,50.69
2019-05-21T07:09:06.960Z,50.64
2019-05-21T07:11:36.378Z,50.56
2019-05-21T07:14:05.954Z,50.46
2019-05-21T07:16:35.468Z,50.46
2019-05-21T07:19:05.065Z,50.42
2019-05-21T07:21:34.506Z,50.44
2019-05-21T07:24:04.029Z,50.39
2019-05-21T07:26:33.752Z,50.41
2019-05-21T07:29:03.345Z,50.44
2019-05-21T07:31:32.886Z,50.44
2019-05-21T07:34:03.415Z,50.46
2019-05-21T07:36:34.737Z,50.42
2019-05-21T07:39:05.648Z,50.39
2019-05-21T07:41:37.517Z,50.35
2019-05-21T07:44:06.994Z,50.32
2019-05-21T07:46:39.519Z,50.25
2019-05-21T07:49:07.718Z,50.24
2019-05-21T07:51:37.177Z,50.22
2019-05-21T07:54:06.666Z,50.28
2019-05-21T07:56:36.076Z,50.26
2019-05-21T07:59:05.625Z,50.33
2019-05-21T08:01:35.170Z,50.24
2019-05-21T08:04:04.673Z,50.37
2019-05-21T08:06:34.175Z,50.33
2019-05-21T08:09:13.141Z,50.31
2019-05-21T08:11:35.120Z,50.32
2019-05-21T08:14:04.659Z,50.33
2019-05-21T08:16:34.048Z,50.40
2019-05-21T08:19:03.458Z,50.29
2019-05-21T08:21:32.963Z,50.24
2019-05-21T08:24:02.960Z,50.20
2019-05-21T08:26:32.953Z,50.21
2019-05-21T08:29:02.446Z,50.10
2019-05-21T08:31:31.963Z,50.21
2019-05-21T08:34:01.732Z,50.21
2019-05-21T08:36:31.319Z,50.29
2019-05-21T08:39:00.814Z,50.17
2019-05-21T08:41:30.426Z,50.17
2019-05-21T08:43:59.982Z,50.12
2019-05-21T08:46:29.474Z,50.07
2019-05-21T08:48:58.932Z,49.87
2019-05-21T08:51:28.375Z,49.76
2019-05-21T08:53:57.907Z,49.83
2019-05-21T08:56:29.985Z,49.76
2019-05-21T08:58:59.618Z,49.60
2019-05-21T09:01:29.076Z,49.48
2019-05-21T09:03:58.636Z,49.51
2019-05-21T09:06:28.117Z,49.29
2019-05-21T09:08:57.604Z,49.33
2019-05-21T09:11:29.964Z,49.19
2019-05-21T09:13:59.393Z,48.86
2019-05-21T09:16:28.851Z,48.88
2019-05-21T09:18:58.299Z,48.66
2019-05-21T09:21:27.763Z,48.35
2019-05-21T09:23:57.222Z,48.39
2019-05-21T09:26:26.737Z,48.21
2019-05-21T09:28:56.368Z,47.57
2019-05-21T09:31:25.740Z,47.51
2019-05-21T09:33:55.482Z,47.40
2019-05-21T09:36:25.465Z,47.28
2019-05-21T09:38:55.107Z,47.18
2019-05-21T09:41:24.718Z,47.19
2019-05-21T09:43:57.367Z,47.35
2019-05-21T09:46:26.822Z,47.00
2019-05-21T09:48:56.332Z,47.15
2019-05-21T09:51:25.849Z,47.06
2019-05-21T09:53:55.898Z,46.92
2019-05-21T09:56:35.409Z,46.53
2019-05-21T09:59:14.101Z,46.66
2019-05-21T10:01:47.913Z,46.69
2019-05-21T10:04:17.445Z,46.67
2019-05-21T10:06:47.464Z,46.20
2019-05-21T10:09:19.599Z,45.22
2019-05-21T10:11:49.153Z,44.91
2019-05-21T10:14:18.673Z,44.81
2019-05-21T10:16:48.207Z,44.76
2019-05-21T10:19:17.658Z,44.13
2019-05-21T10:21:47.149Z,42.50
2019-05-21T10:24:16.640Z,41.79
2019-05-21T10:26:46.278Z,40.79
2019-05-21T10:29:15.772Z,39.06
2019-05-21T10:31:45.604Z,37.76
2019-05-21T10:34:15.221Z,36.28
2019-05-21T10:36:44.535Z,35.45
2019-05-21T10:39:14.501Z,35.37
2019-05-21T10:41:46.088Z,35.02
2019-05-21T10:44:14.997Z,34.98
2019-05-21T10:46:44.475Z,35.03
2019-05-21T10:49:13.818Z,34.88
2019-05-21T10:51:43.255Z,34.92
2019-05-21T10:54:12.759Z,34.37
2019-05-21T10:56:47.886Z,33.83
2019-05-21T10:59:13.569Z,33.42
2019-05-21T11:01:53.269Z,33.36
2019-05-21T11:04:47.880Z,33.01
2019-05-21T11:07:18.856Z,33.00
2019-05-21T11:09:48.239Z,31.90
2019-05-21T11:12:17.770Z,31.96
2019-05-21T11:14:47.155Z,32.50
2019-05-21T11:17:16.689Z,32.26
2019-05-21T11:19:46.106Z,31.11
2019-05-21T11:22:16.276Z,31.75
2019-05-21T11:24:45.884Z,32.26
2019-05-21T11:27:15.323Z,31.49
2019-05-21T11:29:44.738Z,30.86
2019-05-21T11:32:14.517Z,31.45
2019-05-21T11:34:44.024Z,31.00
2019-05-21T11:37:13.441Z,31.33
2019-05-21T11:39:42.942Z,30.92
2019-05-21T11:42:17.039Z,31.26
2019-05-21T11:44:46.602Z,31.42
2019-05-21T11:47:16.010Z,31.57
2019-05-21T11:49:51.442Z,31.22
2019-05-21T11:52:22.399Z,31.12
2019-05-21T11:54:55.279Z,31.36
2019-05-21T11:57:23.291Z,31.73
2019-05-21T11:59:52.936Z,31.04
2019-05-21T12:02:22.334Z,30.95
2019-05-21T12:04:51.773Z,31.09
2019-05-21T12:07:21.183Z,32.16
2019-05-21T12:09:50.962Z,31.89
2019-05-21T12:12:20.527Z,32.26
2019-05-21T12:14:50.993Z,32.72
2019-05-21T12:17:20.394Z,32.90
2019-05-21T12:19:49.977Z,33.09
2019-05-21T12:22:21.960Z,33.81
2019-05-21T12:24:51.421Z,34.16
2019-05-21T12:27:20.858Z,34.57
2019-05-21T12:29:50.367Z,35.16
2019-05-21T12:32:20.977Z,34.51
2019-05-21T12:34:51.506Z,34.43
2019-05-21T12:37:21.034Z,34.74
2019-05-21T12:39:50.458Z,34.48
2019-05-21T12:42:20.020Z,33.95
2019-05-21T12:44:51.635Z,33.93
2019-05-21T12:47:23.364Z,33.83
2019-05-21T12:49:52.946Z,33.41
2019-05-21T12:52:22.554Z,33.33
2019-05-21T12:54:52.086Z,33.12
2019-05-21T12:57:22.052Z,32.46
2019-05-21T12:59:51.607Z,32.22
2019-05-21T13:02:21.140Z,32.32
2019-05-21T13:04:54.713Z,33.39
2019-05-21T13:07:31.783Z,32.98
2019-05-21T13:10:02.632Z,30.64
2019-05-21T13:12:32.032Z,30.63
2019-05-21T13:15:01.468Z,31.01
2019-05-21T13:17:30.945Z,31.42
2019-05-21T13:20:00.392Z,31.32
2019-05-21T13:22:29.931Z,31.30
2019-05-21T13:24:59.484Z,31.67
2019-05-21T13:27:29.022Z,31.81
2019-05-21T13:29:58.648Z,31.76
2019-05-21T13:32:28.105Z,30.89
2019-05-21T13:34:57.778Z,30.71
2019-05-21T13:37:27.175Z,31.20
2019-05-21T13:39:57.107Z,30.77
2019-05-21T13:42:27.243Z,29.98
2019-05-21T13:44:58.983Z,30.05
2019-05-21T13:47:28.529Z,30.61
2019-05-21T13:49:58.224Z,30.20
2019-05-21T13:52:27.751Z,30.68
2019-05-21T13:54:57.437Z,30.05
2019-05-21T13:57:27.076Z,31.37
2019-05-21T13:59:56.787Z,31.02
2019-05-21T14:02:26.423Z,31.16
2019-05-21T14:04:55.984Z,31.25
2019-05-21T14:07:25.584Z,31.71
2019-05-21T14:10:13.323Z,31.47
2019-05-21T14:12:28.972Z,32.18
2019-05-21T14:14:58.716Z,31.31
2019-05-21T14:17:28.249Z,31.28
2019-05-21T14:19:57.983Z,31.72
2019-05-21T14:22:27.671Z,31.64
2019-05-21T14:24:57.286Z,32.71
2019-05-21T14:27:43.259Z,32.85
2019-05-21T14:29:58.317Z,33.14
2019-05-21T14:32:28.703Z,32.85
2019-05-21T14:35:01.404Z,32.25
2019-05-21T14:37:29.520Z,31.50
2019-05-21T14:39:59.068Z,31.22
2019-05-21T14:42:28.525Z,31.55
2019-05-21T14:44:58.220Z,31.07
2019-05-21T14:47:27.783Z,31.60
2019-05-21T14:49:58.399Z,31.61
2019-05-21T14:52:27.934Z,31.08
2019-05-21T14:54:57.407Z,30.28
2019-05-21T14:57:26.828Z,30.47
2019-05-21T14:59:58.308Z,29.92
2019-05-21T15:02:27.688Z,30.15
2019-05-21T15:04:57.445Z,29.70
2019-05-21T15:07:27.133Z,29.29
2019-05-21T15:09:56.582Z,29.93
2019-05-21T15:12:26.242Z,30.01
2019-05-21T15:14:55.802Z,28.62
2019-05-21T15:17:25.361Z,29.15
2019-05-21T15:19:56.647Z,28.98
2019-05-21T15:22:27.764Z,29.32
2019-05-21T15:24:59.963Z,28.47
2019-05-21T15:27:29.427Z,29.16
2019-05-21T15:29:58.974Z,28.60
2019-05-21T15:32:29.999Z,29.35
2019-05-21T15:34:59.887Z,29.03
2019-05-21T15:37:31.924Z,29.53
2019-05-21T15:40:01.421Z,29.85
2019-05-21T15:42:30.947Z,29.40
2019-05-21T15:45:00.405Z,28.24
2019-05-21T15:47:31.008Z,27.74
2019-05-21T15:50:00.566Z,28.01
2019-05-21T15:52:29.976Z,27.52
2019-05-21T15:54:59.482Z,27.66
2019-05-21T15:57:28.912Z,27.42
2019-05-21T15:59:58.406Z,26.64
2019-05-21T16:02:27.822Z,26.73
2019-05-21T16:04:57.254Z,26.59
2019-05-21T16:07:26.931Z,25.92
2019-05-21T16:09:56.361Z,25.71
2019-05-21T16:12:26.090Z,25.71
2019-05-21T16:14:55.793Z,24.54
2019-05-21T16:17:28.357Z,24.74
2019-05-21T16:19:57.738Z,25.15
2019-05-21T16:22:27.280Z,25.18
2019-05-21T16:24:56.861Z,25.56
2019-05-21T16:27:26.477Z,24.95
2019-05-21T16:29:56.013Z,25.12
2019-05-21T16:32:28.524Z,24.98
2019-05-21T16:34:58.004Z,25.63
2019-05-21T16:37:28.413Z,25.77
2019-05-21T16:40:01.189Z,26.46
2019-05-21T16:42:30.573Z,26.70
2019-05-21T16:45:03.765Z,27.00
2019-05-21T16:47:44.608Z,26.97
2019-05-21T16:52:59.000Z,25.91
2019-05-21T16:55:28.558Z,25.72
2019-05-21T16:57:58.093Z,25.34
2019-05-21T17:00:28.806Z,25.30
2019-05-21T17:02:59.733Z,25.81
2019-05-21T17:05:29.232Z,26.41
2019-05-21T17:08:02.109Z,26.18
2019-05-21T17:10:31.580Z,26.10
2019-05-21T17:13:00.962Z,25.75
2019-05-21T17:15:30.419Z,25.57
2019-05-21T17:17:59.759Z,25.50
2019-05-21T17:20:29.226Z,25.18
2019-05-21T17:23:02.444Z,25.51
2019-05-21T17:25:31.857Z,25.42
2019-05-21T17:28:01.289Z,25.15
2019-05-21T17:30:30.780Z,24.98
2019-05-21T17:33:00.454Z,25.15
2019-05-21T17:35:30.484Z,25.32
2019-05-21T17:37:59.994Z,25.49
2019-05-21T17:40:29.587Z,25.99
2019-05-21T17:43:12.630Z,26.43
2019-05-21T17:48:35.463Z,26.21
2019-05-21T17:51:27.893Z,26.76
2019-05-21T17:54:11.306Z,26.65
2019-05-21T17:56:43.673Z,27.38
2019-05-21T17:59:13.630Z,27.96
2019-05-21T18:01:46.443Z,28.09
2019-05-21T18:04:16.178Z,27.78
2019-05-21T18:06:47.857Z,27.12
2019-05-21T18:09:18.838Z,27.56
2019-05-21T18:11:49.414Z,28.23
2019-05-21T18:14:18.917Z,28.94
2019-05-21T18:16:48.559Z,29.07
2019-05-21T18:19:18.954Z,29.30
2019-05-21T18:21:49.303Z,29.34
2019-05-21T18:24:18.778Z,29.26
2019-05-21T18:26:48.387Z,29.36
2019-05-21T18:29:17.986Z,29.16
2019-05-21T18:31:48.994Z,29.06
2019-05-21T18:34:19.132Z,28.99
2019-05-21T18:36:49.515Z,28.94
2019-05-21T18:39:19.310Z,29.02
2019-05-21T18:41:49.562Z,29.09
2019-05-21T18:44:19.381Z,28.94
2019-05-21T18:46:48.993Z,29.37
2019-05-21T18:49:18.398Z,29.54
2019-05-21T18:51:47.747Z,29.95
2019-05-21T18:54:17.338Z,29.79
2019-05-21T18:56:46.723Z,29.92
2019-05-21T18:59:16.093Z,29.82
2019-05-21T19:01:45.416Z,29.87
2019-05-21T19:04:14.810Z,30.35
2019-05-21T19:06:44.131Z,30.12
2019-05-21T19:09:13.469Z,30.26
2019-05-21T19:11:42.771Z,30.07
2019-05-21T19:14:12.160Z,29.81
2019-05-21T19:16:41.522Z,29.78
2019-05-21T19:19:13.583Z,29.60
2019-05-21T19:21:42.895Z,29.80
2019-05-21T19:24:12.389Z,30.12
2019-05-21T19:26:44.031Z,30.48
2019-05-21T19:29:12.900Z,30.80
2019-05-21T19:31:42.280Z,30.75
2019-05-21T19:34:14.231Z,30.87
2019-05-21T19:36:43.664Z,30.64
2019-05-21T19:39:13.335Z,31.06
2019-05-21T19:41:42.713Z,31.75
2019-05-21T19:44:12.041Z,32.39
2019-05-21T19:46:41.373Z,32.96
2019-05-21T19:49:10.787Z,33.40
2019-05-21T19:51:40.116Z,33.75
2019-05-21T19:54:09.465Z,34.31
2019-05-21T19:56:38.746Z,34.52
2019-05-21T19:59:08.171Z,35.27
2019-05-21T20:01:37.476Z,35.46
2019-05-21T20:04:11.308Z,35.71
2019-05-21T20:06:41.906Z,36.01
2019-05-21T20:09:15.092Z,36.38
2019-05-21T20:11:46.808Z,36.57
2019-05-21T20:14:16.340Z,36.95
2019-05-21T20:16:48.135Z,37.28
2019-05-21T20:19:19.643Z,37.59
2019-05-21T20:21:49.663Z,37.92
2019-05-21T20:24:19.498Z,38.34
2019-05-21T20:26:49.030Z,38.69
2019-05-21T20:29:18.513Z,39.06
2019-05-21T20:31:47.967Z,39.40
2019-05-21T20:34:17.539Z,39.74
2019-05-21T20:36:47.061Z,39.77
2019-05-21T20:39:19.076Z,39.77
2019-05-21T20:41:49.989Z,40.06
2019-05-21T20:44:20.497Z,40.34
2019-05-21T20:46:49.889Z,40.41
2019-05-21T20:49:20.742Z,40.53
2019-05-21T20:51:50.643Z,40.62
2019-05-21T20:54:21.662Z,40.59
2019-05-21T20:56:53.623Z,40.61
2019-05-21T20:59:23.014Z,40.68
2019-05-21T21:01:52.679Z,40.70
2019-05-21T21:04:22.529Z,40.91
2019-05-21T21:06:52.097Z,41.03
2019-05-21T21:09:21.543Z,41.07
2019-05-21T21:11:51.058Z,41.23
2019-05-21T21:14:22.147Z,41.26
2019-05-21T21:16:51.548Z,41.28
2019-05-21T21:19:20.966Z,41.35
2019-05-21T21:21:50.544Z,41.46
2019-05-21T21:24:20.037Z,41.48
2019-05-21T21:26:49.744Z,41.51
2019-05-21T21:29:19.160Z,41.56
2019-05-21T21:31:48.554Z,41.65
2019-05-21T21:34:18.063Z,41.75
2019-05-21T21:36:47.483Z,41.92
2019-05-21T21:39:16.882Z,41.94
2019-05-21T21:41:47.017Z,41.91
2019-05-21T21:44:32.715Z,41.90
2019-05-21T21:46:49.306Z,41.87
2019-05-21T21:49:20.283Z,41.98
2019-05-21T21:51:50.327Z,42.03
2019-05-21T21:54:20.702Z,42.19
2019-05-21T21:56:50.220Z,42.29
2019-05-21T21:59:19.631Z,42.49
2019-05-21T22:01:54.310Z,42.58
2019-05-21T22:04:30.604Z,42.65
2019-05-21T22:07:00.811Z,42.72
2019-05-21T22:09:33.670Z,42.87
2019-05-21T22:12:06.034Z,42.82
2019-05-21T22:14:49.839Z,42.85
2019-05-21T22:17:09.414Z,42.86
2019-05-21T22:19:40.352Z,43.02
2019-05-21T22:22:10.609Z,43.09
2019-05-21T22:24:40.211Z,43.10
2019-05-21T22:27:09.837Z,43.13
2019-05-21T22:29:41.833Z,43.13
2019-05-21T22:32:11.329Z,43.21
2019-05-21T22:34:40.714Z,43.20
2019-05-21T22:37:12.966Z,43.24
2019-05-21T22:39:43.935Z,43.34
2019-05-21T22:42:14.413Z,43.46
2019-05-21T22:44:44.482Z,43.50
2019-05-21T22:47:14.555Z,43.66
2019-05-21T22:49:44.043Z,43.73
2019-05-21T22:52:14.098Z,43.89
2019-05-21T22:54:43.703Z,43.93
2019-05-21T22:57:13.132Z,44.05
2019-05-21T22:59:42.546Z,44.09
2019-05-21T23:02:16.836Z,44.24
2019-05-21T23:04:46.225Z,44.38
2019-05-21T23:07:15.552Z,44.57
2019-05-21T23:09:44.993Z,44.72
2019-05-21T23:12:14.443Z,44.98
2019-05-21T23:14:43.880Z,45.14
2019-05-21T23:17:13.336Z,45.32
2019-05-21T23:19:44.793Z,45.60
2019-05-21T23:22:16.357Z,45.67
2019-05-21T23:24:46.309Z,45.97
2019-05-21T23:27:17.414Z,46.10
2019-05-21T23:29:47.453Z,46.05
2019-05-21T23:32:17.505Z,45.99
2019-05-21T23:34:47.538Z,45.91
2019-05-21T23:37:21.893Z,45.89
2019-05-21T23:39:55.931Z,45.98
2019-05-21T23:42:30.207Z,45.99
2019-05-21T23:44:59.440Z,45.89
2019-05-21T23:47:29.221Z,45.88
2019-05-21T23:49:58.656Z,46.01
2019-05-21T23:52:28.537Z,46.24
2019-05-21T23:54:58.318Z,46.32
2019-05-21T23:57:30.576Z,46.64
2019-05-21T23:59:59.994Z,46.59
